Decoded Metar for FMCZ (DZAOUDZI in MAYOTTE ISLAND) (IATA:DZA) | Meteo·Mobile Aviation Weather
aviador You're here:

FMCZ Decoded Metar

DZAOUDZI in MAYOTTE ISLAND
Report Time2020-02-25 22:00:00
UTC Time2020-02-25 22:29:40
Flight Rules vfr VFR
Wind320° at 03 kt
W.Decomp.*RWY 34: 2.9 kt HW 0.6 kt LCW
Visibility9999 m
Phenomena:N/A
Clouds:N/A
Expected CloudBase > 400 ft AGL from Temp-Dew spread
CeilingNone
Temp26°C (ISA +11)
Dew Point25°C (94% RH)
QNH1009 hPa
Density Alt1,850 ft
Elevation23 ft
Report Wrong Elevation
Raw Report
FMCZ 252200Z AUTO 32003KT 290V360 CAVOK 26/25 Q1009 NOSIG=

Extra information for FMCZ:More info

Metar Taf Metar & Taf Last 4 Metars F.Rules Stats Wind Profile Meteogram Temp Stats Airport Information Weather charts Add Link Nearby VenuesMetar ALERT Operation Metar Decoded Social comments